Terminal Aerodrome Forecast
Issued by NWS Shreveport, LA

Home | Current Version | Previous Version | Text Only | Print | Product List | Glossary On
Versions: 1 2 3 4 5 6 7 8 9 10 11 12 13 14 15 16 17 18 19 20 21 22 23
000
FTUS44 KSHV 282332
TAFLFK
TAF
KLFK 282332Z 2900/2924 VRB03KT P6SM VCSH SCT060 BKN100 OVC250
     FM290600 VRB03KT 6SM BR SCT100 BKN250
      TEMPO 2909/2913 3SM BR BKN002
     FM291300 19005KT P6SM SCT015 SCT150 SCT250
      TEMPO 2913/2916 BKN015
     FM291600 23006KT P6SM SCT035 SCT250
     FM291800 23007KT P6SM SCT045 SCT250=

USA.gov is the U.S. government's official web portal to all federal, state and local government web resources and services.